sensor_id;sensor_type;location;lat;lon;timestamp;pressure;altitude;pressure_sealevel;temperature;humidity
72685;BME280;61365;52.162;4.500;2024-03-23T00:54:17;101083.13;;;8.97;100.00
72685;BME280;61365;52.162;4.500;2024-03-23T00:56:43;101086.53;;;8.89;100.00
72685;BME280;61365;52.162;4.500;2024-03-23T00:59:09;101072.50;;;8.79;100.00
72685;BME280;61365;52.162;4.500;2024-03-23T01:01:35;101068.22;;;8.87;100.00
72685;BME280;61365;52.162;4.500;2024-03-23T01:04:02;101070.81;;;8.85;100.00
72685;BME280;61365;52.162;4.500;2024-03-23T01:06:28;101068.16;;;8.79;100.00
72685;BME280;61365;52.162;4.500;2024-03-23T01:08:54;101071.75;;;8.94;100.00
72685;BME280;61365;52.162;4.500;2024-03-23T01:11:21;101065.59;;;8.89;100.00
72685;BME280;61365;52.162;4.500;2024-03-23T01:13:47;101056.06;;;8.94;100.00
72685;BME280;61365;52.162;4.500;2024-03-23T01:16:13;101053.44;;;8.92;100.00
72685;BME280;61365;52.162;4.500;2024-03-23T01:18:39;101062.16;;;8.93;100.00
72685;BME280;61365;52.162;4.500;2024-03-23T01:21:05;101055.13;;;8.87;100.00
72685;BME280;61365;52.162;4.500;2024-03-23T01:23:31;101046.34;;;8.83;100.00
72685;BME280;61365;52.162;4.500;2024-03-23T01:25:57;101049.81;;;8.78;100.00
72685;BME280;61365;52.162;4.500;2024-03-23T01:28:23;101048.88;;;8.73;100.00
72685;BME280;61365;52.162;4.500;2024-03-23T01:30:49;101052.34;;;8.70;100.00
72685;BME280;61365;52.162;4.500;2024-03-23T01:33:15;101047.31;;;8.90;100.00
72685;BME280;61365;52.162;4.500;2024-03-23T01:35:42;101048.97;;;8.80;100.00
72685;BME280;61365;52.162;4.500;2024-03-23T01:38:08;101049.75;;;8.75;100.00
72685;BME280;61365;52.162;4.500;2024-03-23T01:40:34;101042.22;;;9.04;100.00
72685;BME280;61365;52.162;4.500;2024-03-23T01:43:04;101033.25;;;8.77;100.00
72685;BME280;61365;52.162;4.500;2024-03-23T01:45:31;101028.06;;;8.86;100.00
72685;BME280;61365;52.162;4.500;2024-03-23T01:47:58;101030.75;;;8.91;100.00
72685;BME280;61365;52.162;4.500;2024-03-23T01:50:25;101025.41;;;8.80;100.00
72685;BME280;61365;52.162;4.500;2024-03-23T01:52:51;101029.00;;;8.90;100.00
72685;BME280;61365;52.162;4.500;2024-03-23T01:55:17;101027.31;;;8.95;100.00
72685;BME280;61365;52.162;4.500;2024-03-23T01:57:44;101027.19;;;8.84;100.00
72685;BME280;61365;52.162;4.500;2024-03-23T02:00:10;101028.91;;;8.79;100.00
72685;BME280;61365;52.162;4.500;2024-03-23T02:05:10;101027.03;;;8.70;100.00
72685;BME280;61365;52.162;4.500;2024-03-23T02:07:40;101025.19;;;8.55;100.00
72685;BME280;61365;52.162;4.500;2024-03-23T02:10:07;101019.19;;;8.69;100.00
72685;BME280;61365;52.162;4.500;2024-03-23T02:12:35;101018.38;;;8.75;100.00
72685;BME280;61365;52.162;4.500;2024-03-23T02:15:02;101011.34;;;8.67;100.00
72685;BME280;61365;52.162;4.500;2024-03-23T02:17:30;101013.97;;;8.69;100.00
72685;BME280;61365;52.162;4.500;2024-03-23T02:19:56;101006.22;;;8.78;100.00
72685;BME280;61365;52.162;4.500;2024-03-23T02:22:23;101000.00;;;8.65;100.00
72685;BME280;61365;52.162;4.500;2024-03-23T02:24:49;100998.34;;;8.78;100.00
72685;BME280;61365;52.162;4.500;2024-03-23T02:27:15;100991.25;;;8.63;100.00
72685;BME280;61365;52.162;4.500;2024-03-23T02:29:41;100988.59;;;8.60;100.00
72685;BME280;61365;52.162;4.500;2024-03-23T02:32:07;100993.78;;;8.55;100.00
72685;BME280;61365;52.162;4.500;2024-03-23T02:34:35;100983.34;;;8.57;100.00
72685;BME280;61365;52.162;4.500;2024-03-23T02:37:01;100982.59;;;8.72;100.00
72685;BME280;61365;52.162;4.500;2024-03-23T02:39:28;100978.22;;;8.73;100.00
72685;BME280;61365;52.162;4.500;2024-03-23T02:41:54;100985.06;;;8.53;100.00
72685;BME280;61365;52.162;4.500;2024-03-23T02:44:20;100978.13;;;8.62;100.00
72685;BME280;61365;52.162;4.500;2024-03-23T02:46:46;100982.63;;;8.75;100.00
72685;BME280;61365;52.162;4.500;2024-03-23T02:49:12;100970.19;;;8.51;100.00
72685;BME280;61365;52.162;4.500;2024-03-23T02:51:39;100974.66;;;8.63;100.00
72685;BME280;61365;52.162;4.500;2024-03-23T02:54:05;100975.66;;;8.76;100.00
72685;BME280;61365;52.162;4.500;2024-03-23T02:56:32;100966.00;;;8.68;100.00
72685;BME280;61365;52.162;4.500;2024-03-23T02:58:58;100973.81;;;8.65;100.00
72685;BME280;61365;52.162;4.500;2024-03-23T03:01:24;100965.25;;;8.80;100.00
72685;BME280;61365;52.162;4.500;2024-03-23T03:03:51;100968.88;;;9.01;100.00
72685;BME280;61365;52.162;4.500;2024-03-23T03:06:24;100970.59;;;8.99;100.00
72685;BME280;61365;52.162;4.500;2024-03-23T03:08:51;100966.94;;;8.77;100.00
72685;BME280;61365;52.162;4.500;2024-03-23T03:11:17;100969.59;;;8.83;100.00
72685;BME280;61365;52.162;4.500;2024-03-23T03:13:43;100957.50;;;8.96;100.00
72685;BME280;61365;52.162;4.500;2024-03-23T03:16:10;100961.13;;;9.16;100.00
72685;BME280;61365;52.162;4.500;2024-03-23T03:18:37;100959.41;;;9.22;100.00
72685;BME280;61365;52.162;4.500;2024-03-23T03:21:03;100965.41;;;9.02;100.00
72685;BME280;61365;52.162;4.500;2024-03-23T03:23:31;100954.81;;;8.88;100.00
72685;BME280;61365;52.162;4.500;2024-03-23T03:25:57;100954.91;;;9.00;100.00
72685;BME280;61365;52.162;4.500;2024-03-23T03:28:23;100959.09;;;8.80;100.00
72685;BME280;61365;52.162;4.500;2024-03-23T03:30:51;100967.84;;;8.83;100.00
72685;BME280;61365;52.162;4.500;2024-03-23T03:33:17;100957.50;;;8.94;100.00
72685;BME280;61365;52.162;4.500;2024-03-23T03:35:43;100962.38;;;8.52;100.00
72685;BME280;61365;52.162;4.500;2024-03-23T03:38:11;100957.31;;;8.71;100.00
72685;BME280;61365;52.162;4.500;2024-03-23T03:40:37;100947.44;;;8.47;100.00
72685;BME280;61365;52.162;4.500;2024-03-23T03:43:03;100951.13;;;8.61;100.00
72685;BME280;61365;52.162;4.500;2024-03-23T03:45:29;100934.34;;;8.40;100.00
72685;BME280;61365;52.162;4.500;2024-03-23T03:47:55;100935.81;;;8.14;100.00
72685;BME280;61365;52.162;4.500;2024-03-23T03:50:21;100944.44;;;8.08;100.00
72685;BME280;61365;52.162;4.500;2024-03-23T03:52:47;100939.94;;;7.93;100.00
72685;BME280;61365;52.162;4.500;2024-03-23T03:55:14;100944.16;;;7.83;100.00
72685;BME280;61365;52.162;4.500;2024-03-23T03:57:42;100939.81;;;7.84;100.00
72685;BME280;61365;52.162;4.500;2024-03-23T04:00:08;100934.38;;;7.66;100.00
72685;BME280;61365;52.162;4.500;2024-03-23T04:02:38;100933.75;;;7.85;100.00
72685;BME280;61365;52.162;4.500;2024-03-23T04:05:04;100928.47;;;7.81;100.00
72685;BME280;61365;52.162;4.500;2024-03-23T04:07:31;100930.22;;;7.82;100.00
72685;BME280;61365;52.162;4.500;2024-03-23T04:09:57;100929.34;;;7.80;100.00
72685;BME280;61365;52.162;4.500;2024-03-23T04:12:23;100925.88;;;7.81;100.00
72685;BME280;61365;52.162;4.500;2024-03-23T04:14:49;100928.53;;;7.86;100.00
72685;BME280;61365;52.162;4.500;2024-03-23T04:17:16;100926.72;;;7.82;100.00
72685;BME280;61365;52.162;4.500;2024-03-23T04:19:42;100930.31;;;7.89;100.00
72685;BME280;61365;52.162;4.500;2024-03-23T04:22:08;100917.09;;;7.75;100.00
72685;BME280;61365;52.162;4.500;2024-03-23T04:24:34;100918.09;;;7.88;100.00
72685;BME280;61365;52.162;4.500;2024-03-23T04:27:00;100923.13;;;7.69;100.00
72685;BME280;61365;52.162;4.500;2024-03-23T04:29:27;100929.25;;;7.73;100.00
72685;BME280;61365;52.162;4.500;2024-03-23T04:31:53;100924.97;;;7.79;100.00
72685;BME280;61365;52.162;4.500;2024-03-23T04:34:19;100918.84;;;7.77;100.00
72685;BME280;61365;52.162;4.500;2024-03-23T04:36:45;100918.22;;;8.00;100.00
72685;BME280;61365;52.162;4.500;2024-03-23T04:39:11;100920.59;;;7.78;100.00
72685;BME280;61365;52.162;4.500;2024-03-23T04:41:37;100919.78;;;7.81;100.00
72685;BME280;61365;52.162;4.500;2024-03-23T04:44:03;100927.56;;;7.78;100.00
72685;BME280;61365;52.162;4.500;2024-03-23T04:46:29;100929.25;;;7.74;100.00
72685;BME280;61365;52.162;4.500;2024-03-23T04:48:55;100925.13;;;7.92;100.00
72685;BME280;61365;52.162;4.500;2024-03-23T04:51:22;100927.97;;;8.15;100.00
72685;BME280;61365;52.162;4.500;2024-03-23T04:53:49;100922.06;;;8.32;100.00
72685;BME280;61365;52.162;4.500;2024-03-23T04:56:16;100928.03;;;8.21;100.00
72685;BME280;61365;52.162;4.500;2024-03-23T04:58:43;100930.72;;;8.29;100.00
72685;BME280;61365;52.162;4.500;2024-03-23T05:01:10;100923.88;;;8.40;100.00
72685;BME280;61365;52.162;4.500;2024-03-23T05:03:36;100921.94;;;8.22;100.00
72685;BME280;61365;52.162;4.500;2024-03-23T05:06:03;100921.34;;;8.50;100.00
72685;BME280;61365;52.162;4.500;2024-03-23T05:08:29;100922.97;;;8.38;100.00
72685;BME280;61365;52.162;4.500;2024-03-23T05:10:55;100932.56;;;8.39;100.00
72685;BME280;61365;52.162;4.500;2024-03-23T05:13:22;100927.31;;;8.38;100.00
72685;BME280;61365;52.162;4.500;2024-03-23T05:15:54;100927.38;;;8.46;100.00
72685;BME280;61365;52.162;4.500;2024-03-23T05:18:20;100923.84;;;8.39;100.00
72685;BME280;61365;52.162;4.500;2024-03-23T05:20:47;100923.97;;;8.48;100.00
72685;BME280;61365;52.162;4.500;2024-03-23T05:23:13;100925.59;;;8.38;100.00
72685;BME280;61365;52.162;4.500;2024-03-23T05:25:39;100929.00;;;8.30;100.00
72685;BME280;61365;52.162;4.500;2024-03-23T05:28:06;100927.25;;;8.29;100.00
72685;BME280;61365;52.162;4.500;2024-03-23T05:30:32;100928.91;;;8.22;100.00
72685;BME280;61365;52.162;4.500;2024-03-23T05:32:59;100916.00;;;8.39;100.00
72685;BME280;61365;52.162;4.500;2024-03-23T05:35:25;100925.66;;;8.46;100.00
72685;BME280;61365;52.162;4.500;2024-03-23T05:37:51;100922.19;;;8.47;100.00
72685;BME280;61365;52.162;4.500;2024-03-23T05:40:17;100926.41;;;8.36;100.00
72685;BME280;61365;52.162;4.500;2024-03-23T05:42:43;100923.56;;;8.09;100.00
72685;BME280;61365;52.162;4.500;2024-03-23T05:45:09;100921.88;;;8.15;100.00
72685;BME280;61365;52.162;4.500;2024-03-23T05:47:36;100918.19;;;7.97;100.00
72685;BME280;61365;52.162;4.500;2024-03-23T05:50:03;100921.94;;;8.24;100.00
72685;BME280;61365;52.162;4.500;2024-03-23T05:52:29;100917.63;;;8.26;100.00
72685;BME280;61365;52.162;4.500;2024-03-23T05:54:56;100915.78;;;8.16;100.00
72685;BME280;61365;52.162;4.500;2024-03-23T05:57:22;100905.13;;;7.97;100.00
72685;BME280;61365;52.162;4.500;2024-03-23T05:59:48;100914.78;;;8.04;100.00
72685;BME280;61365;52.162;4.500;2024-03-23T06:02:14;100919.03;;;7.94;100.00
72685;BME280;61365;52.162;4.500;2024-03-23T06:04:40;100920.94;;;8.09;100.00
72685;BME280;61365;52.162;4.500;2024-03-23T06:07:06;100918.34;;;8.11;100.00
72685;BME280;61365;52.162;4.500;2024-03-23T06:09:32;100912.22;;;8.09;100.00
72685;BME280;61365;52.162;4.500;2024-03-23T06:11:59;100910.53;;;8.14;100.00
72685;BME280;61365;52.162;4.500;2024-03-23T06:14:25;100918.38;;;8.14;100.00
72685;BME280;61365;52.162;4.500;2024-03-23T06:16:51;100920.94;;;8.11;100.00
72685;BME280;61365;52.162;4.500;2024-03-23T06:19:17;100928.16;;;8.32;100.00
72685;BME280;61365;52.162;4.500;2024-03-23T06:21:44;100919.69;;;8.56;100.00
72685;BME280;61365;52.162;4.500;2024-03-23T06:24:13;100929.19;;;8.48;100.00
72685;BME280;61365;52.162;4.500;2024-03-23T06:26:39;100925.88;;;8.66;100.00
72685;BME280;61365;52.162;4.500;2024-03-23T06:29:06;100923.81;;;8.36;100.00
72685;BME280;61365;52.162;4.500;2024-03-23T06:31:32;100921.16;;;8.30;100.00
72685;BME280;61365;52.162;4.500;2024-03-23T06:33:58;100913.00;;;8.00;100.00
72685;BME280;61365;52.162;4.500;2024-03-23T06:36:24;100928.19;;;8.35;100.00
72685;BME280;61365;52.162;4.500;2024-03-23T06:38:50;100917.06;;;8.53;100.00
72685;BME280;61365;52.162;4.500;2024-03-23T06:41:16;100911.84;;;8.58;100.00
72685;BME280;61365;52.162;4.500;2024-03-23T06:43:43;100911.25;;;8.93;100.00
72685;BME280;61365;52.162;4.500;2024-03-23T06:46:09;100902.88;;;9.64;100.00
72685;BME280;61365;52.162;4.500;2024-03-23T06:48:35;100906.44;;;9.82;100.00
72685;BME280;61365;52.162;4.500;2024-03-23T06:51:01;100906.53;;;10.22;100.00
72685;BME280;61365;52.162;4.500;2024-03-23T06:53:27;100903.09;;;10.49;100.00
72685;BME280;61365;52.162;4.500;2024-03-23T06:55:54;100910.00;;;10.05;100.00
72685;BME280;61365;52.162;4.500;2024-03-23T06:58:21;100905.63;;;9.94;100.00
72685;BME280;61365;52.162;4.500;2024-03-23T07:00:50;100913.50;;;10.11;100.00
72685;BME280;61365;52.162;4.500;2024-03-23T07:03:20;100912.56;;;9.85;100.00
72685;BME280;61365;52.162;4.500;2024-03-23T07:05:47;100917.84;;;9.99;100.00
72685;BME280;61365;52.162;4.500;2024-03-23T07:08:16;100917.03;;;10.36;100.00
72685;BME280;61365;52.162;4.500;2024-03-23T07:10:47;100906.50;;;9.97;100.00
72685;BME280;61365;52.162;4.500;2024-03-23T07:13:14;100902.13;;;9.95;100.00
72685;BME280;61365;52.162;4.500;2024-03-23T07:15:40;100918.66;;;9.81;100.00
72685;BME280;61365;52.162;4.500;2024-03-23T07:18:06;100917.84;;;9.98;100.00
72685;BME280;61365;52.162;4.500;2024-03-23T07:20:32;100916.84;;;9.58;100.00
72685;BME280;61365;52.162;4.500;2024-03-23T07:22:58;100917.75;;;9.67;100.00
72685;BME280;61365;52.162;4.500;2024-03-23T07:25:24;100916.06;;;9.80;100.00
72685;BME280;61365;52.162;4.500;2024-03-23T07:27:55;100913.44;;;9.83;100.00
72685;BME280;61365;52.162;4.500;2024-03-23T07:30:21;100904.66;;;9.74;100.00
72685;BME280;61365;52.162;4.500;2024-03-23T07:32:47;100918.56;;;9.55;100.00
72685;BME280;61365;52.162;4.500;2024-03-23T07:35:14;100916.97;;;10.00;100.00
72685;BME280;61365;52.162;4.500;2024-03-23T07:37:40;100909.91;;;9.71;100.00
72685;BME280;61365;52.162;4.500;2024-03-23T07:40:07;100919.56;;;9.91;100.00
72685;BME280;61365;52.162;4.500;2024-03-23T07:42:34;100917.63;;;9.43;100.00
72685;BME280;61365;52.162;4.500;2024-03-23T07:45:00;100907.34;;;9.88;100.00
72685;BME280;61365;52.162;4.500;2024-03-23T07:47:26;100906.56;;;10.28;100.00
72685;BME280;61365;52.162;4.500;2024-03-23T07:49:52;100906.59;;;10.72;100.00
72685;BME280;61365;52.162;4.500;2024-03-23T07:52:18;100903.06;;;10.88;100.00
72685;BME280;61365;52.162;4.500;2024-03-23T07:54:44;100911.78;;;10.34;100.00
72685;BME280;61365;52.162;4.500;2024-03-23T07:57:10;100906.53;;;10.24;100.00
72685;BME280;61365;52.162;4.500;2024-03-23T07:59:37;100903.00;;;10.04;100.00
72685;BME280;61365;52.162;4.500;2024-03-23T08:02:03;100901.28;;;10.19;100.00
72685;BME280;61365;52.162;4.500;2024-03-23T08:04:29;100899.53;;;10.36;100.00
72685;BME280;61365;52.162;4.500;2024-03-23T08:06:56;100899.59;;;10.81;100.00
72685;BME280;61365;52.162;4.500;2024-03-23T08:09:22;100911.81;;;10.73;100.00
72685;BME280;61365;52.162;4.500;2024-03-23T08:11:48;100914.47;;;10.67;100.00
72685;BME280;61365;52.162;4.500;2024-03-23T08:14:14;100903.09;;;10.70;100.00
72685;BME280;61365;52.162;4.500;2024-03-23T08:16:40;100900.47;;;10.48;100.00
72685;BME280;61365;52.162;4.500;2024-03-23T08:19:07;100899.56;;;10.30;100.00
72685;BME280;61365;52.162;4.500;2024-03-23T08:21:34;100912.72;;;10.49;100.00
72685;BME280;61365;52.162;4.500;2024-03-23T08:24:00;100910.06;;;10.75;100.00
72685;BME280;61365;52.162;4.500;2024-03-23T08:26:26;100899.63;;;10.58;100.00
72685;BME280;61365;52.162;4.500;2024-03-23T08:28:52;100903.09;;;10.79;100.00
72685;BME280;61365;52.162;4.500;2024-03-23T08:31:18;100903.97;;;10.56;100.00
72685;BME280;61365;52.162;4.500;2024-03-23T08:33:44;100901.34;;;10.55;100.00
72685;BME280;61365;52.162;4.500;2024-03-23T08:36:10;100903.09;;;10.56;100.00
72685;BME280;61365;52.162;4.500;2024-03-23T08:38:40;100890.81;;;10.37;100.00
72685;BME280;61365;52.162;4.500;2024-03-23T08:41:07;100900.41;;;10.21;100.00
72685;BME280;61365;52.162;4.500;2024-03-23T08:43:37;100889.03;;;10.07;100.00
72685;BME280;61365;52.162;4.500;2024-03-23T08:46:15;100896.84;;;9.93;100.00
72685;BME280;61365;52.162;4.500;2024-03-23T08:48:43;100900.38;;;10.01;100.00
72685;BME280;61365;52.162;4.500;2024-03-23T08:51:13;100902.22;;;10.55;100.00
72685;BME280;61365;52.162;4.500;2024-03-23T08:53:40;100896.06;;;11.06;100.00
72685;BME280;61365;52.162;4.500;2024-03-23T08:56:07;100898.59;;;11.29;100.00
72685;BME280;61365;52.162;4.500;2024-03-23T08:58:34;100898.53;;;11.51;100.00
72685;BME280;61365;52.162;4.500;2024-03-23T09:01:07;100896.72;;;11.71;100.00
72685;BME280;61365;52.162;4.500;2024-03-23T09:03:40;100900.16;;;11.84;100.00
72685;BME280;61365;52.162;4.500;2024-03-23T09:06:08;100894.97;;;11.66;100.00
72685;BME280;61365;52.162;4.500;2024-03-23T09:08:35;100891.44;;;11.67;100.00
72685;BME280;61365;52.162;4.500;2024-03-23T09:11:05;100894.66;;;12.25;100.00
72685;BME280;61365;52.162;4.500;2024-03-23T09:13:36;100886.19;;;11.64;100.00
72685;BME280;61365;52.162;4.500;2024-03-23T09:16:02;100887.19;;;11.46;100.00
72685;BME280;61365;52.162;4.500;2024-03-23T09:18:34;100899.34;;;11.67;100.00
72685;BME280;61365;52.162;4.500;2024-03-23T09:21:01;100905.47;;;11.70;100.00
72685;BME280;61365;52.162;4.500;2024-03-23T09:23:28;100904.69;;;11.47;100.00
72685;BME280;61365;52.162;4.500;2024-03-23T09:25:54;100889.81;;;11.46;100.00
72685;BME280;61365;52.162;4.500;2024-03-23T09:28:20;100897.78;;;11.08;100.00
72685;BME280;61365;52.162;4.500;2024-03-23T09:30:46;100904.75;;;11.26;100.00
72685;BME280;61365;52.162;4.500;2024-03-23T09:33:12;100902.19;;;10.92;100.00
72685;BME280;61365;52.162;4.500;2024-03-23T09:35:39;100893.34;;;11.23;100.00
72685;BME280;61365;52.162;4.500;2024-03-23T09:38:06;100900.09;;;11.92;100.00
72685;BME280;61365;52.162;4.500;2024-03-23T09:40:41;100894.97;;;11.66;100.00
72685;BME280;61365;52.162;4.500;2024-03-23T09:43:08;100900.97;;;11.91;100.00
72685;BME280;61365;52.162;4.500;2024-03-23T09:45:38;100902.78;;;11.84;100.00
72685;BME280;61365;52.162;4.500;2024-03-23T09:48:09;100908.16;;;11.53;100.00
72685;BME280;61365;52.162;4.500;2024-03-23T09:50:39;100895.78;;;11.76;100.00
72685;BME280;61365;52.162;4.500;2024-03-23T09:53:09;100901.16;;;11.59;100.00
72685;BME280;61365;52.162;4.500;2024-03-23T09:55:40;100895.97;;;11.34;100.00
72685;BME280;61365;52.162;4.500;2024-03-23T09:58:07;100900.34;;;11.33;100.00
72685;BME280;61365;52.162;4.500;2024-03-23T10:00:34;100895.09;;;11.35;100.00
72685;BME280;61365;52.162;4.500;2024-03-23T10:03:01;100894.16;;;11.54;100.00
72685;BME280;61365;52.162;4.500;2024-03-23T10:05:28;100897.53;;;11.80;100.00
72685;BME280;61365;52.162;4.500;2024-03-23T10:07:57;100894.94;;;11.69;100.00
72685;BME280;61365;52.162;4.500;2024-03-23T10:10:25;100891.50;;;11.57;100.00
72685;BME280;61365;52.162;4.500;2024-03-23T10:12:51;100895.09;;;11.39;100.00
72685;BME280;61365;52.162;4.500;2024-03-23T10:15:22;100896.84;;;11.40;100.00
72685;BME280;61365;52.162;4.500;2024-03-23T10:17:50;100898.56;;;11.40;100.00
72685;BME280;61365;52.162;4.500;2024-03-23T10:20:23;100897.66;;;11.53;100.00
72685;BME280;61365;52.162;4.500;2024-03-23T10:22:49;100894.97;;;11.64;100.00
72685;BME280;61365;52.162;4.500;2024-03-23T10:25:22;100891.44;;;11.71;100.00
72685;BME280;61365;52.162;4.500;2024-03-23T10:27:58;100893.22;;;11.69;100.00
72685;BME280;61365;52.162;4.500;2024-03-23T10:30:26;100892.03;;;12.25;100.00
72685;BME280;61365;52.162;4.500;2024-03-23T10:33:09;100897.66;;;11.49;100.00
72685;BME280;61365;52.162;4.500;2024-03-23T10:35:36;100892.47;;;11.30;100.00
72685;BME280;61365;52.162;4.500;2024-03-23T10:38:06;100878.38;;;11.54;100.00
72685;BME280;61365;52.162;4.500;2024-03-23T10:40:36;100886.94;;;11.91;100.00
72685;BME280;61365;52.162;4.500;2024-03-23T10:43:03;100894.97;;;11.64;100.00
72685;BME280;61365;52.162;4.500;2024-03-23T10:45:30;100891.28;;;12.06;100.00
72685;BME280;61365;52.162;4.500;2024-03-23T10:47:56;100883.44;;;11.96;100.00
72685;BME280;61365;52.162;4.500;2024-03-23T10:50:23;100874.81;;;11.62;100.00
72685;BME280;61365;52.162;4.500;2024-03-23T10:52:49;100887.72;;;12.11;100.00
72685;BME280;61365;52.162;4.500;2024-03-23T10:55:19;100875.41;;;12.16;100.00
72685;BME280;61365;52.162;4.500;2024-03-23T10:57:49;100881.97;;;11.33;100.00
72685;BME280;61365;52.162;4.500;2024-03-23T11:00:17;100891.59;;;11.33;100.00
72685;BME280;61365;52.162;4.500;2024-03-23T11:02:44;100888.13;;;11.24;100.00
72685;BME280;61365;52.162;4.500;2024-03-23T11:05:28;100881.09;;;11.31;100.00
72685;BME280;61365;52.162;4.500;2024-03-23T11:07:56;100891.41;;;11.75;100.00
72685;BME280;61365;52.162;4.500;2024-03-23T11:10:26;100881.91;;;11.44;100.00
72685;BME280;61365;52.162;4.500;2024-03-23T11:12:53;100876.63;;;11.53;100.00
72685;BME280;61365;52.162;4.500;2024-03-23T11:15:19;100881.78;;;11.72;100.00
72685;BME280;61365;52.162;4.500;2024-03-23T11:18:28;100873.69;;;12.17;100.00
72685;BME280;61365;52.162;4.500;2024-03-23T11:20:35;100873.00;;;11.76;100.00
72685;BME280;61365;52.162;4.500;2024-03-23T11:23:01;100878.19;;;11.93;100.00
72685;BME280;61365;52.162;4.500;2024-03-23T11:25:28;100877.47;;;11.60;100.00
72685;BME280;61365;52.162;4.500;2024-03-23T11:27:55;100862.41;;;11.89;100.00
72685;BME280;61365;52.162;4.500;2024-03-23T11:30:43;100862.59;;;11.53;100.00
72685;BME280;61365;52.162;4.500;2024-03-23T11:33:09;100865.97;;;11.77;100.00
72685;BME280;61365;52.162;4.500;2024-03-23T11:35:38;100857.09;;;12.04;100.00
72685;BME280;61365;52.162;4.500;2024-03-23T11:38:09;100864.22;;;11.80;100.00
72685;BME280;61365;52.162;4.500;2024-03-23T11:40:40;100847.72;;;11.52;100.00
72685;BME280;61365;52.162;4.500;2024-03-23T11:43:11;100860.03;;;11.36;100.00
72685;BME280;61365;52.162;4.500;2024-03-23T11:45:39;100854.66;;;11.61;100.00
72685;BME280;61365;52.162;4.500;2024-03-23T11:48:09;100858.22;;;11.52;100.00
72685;BME280;61365;52.162;4.500;2024-03-23T11:50:37;100852.13;;;11.48;100.00
72685;BME280;61365;52.162;4.500;2024-03-23T11:53:13;100852.28;;;11.08;100.00
72685;BME280;61365;52.162;4.500;2024-03-23T11:55:42;100856.31;;;11.82;100.00
72685;BME280;61365;52.162;4.500;2024-03-23T11:58:12;100853.78;;;11.65;100.00
72685;BME280;61365;52.162;4.500;2024-03-23T12:00:39;100844.19;;;11.56;100.00
72685;BME280;61365;52.162;4.500;2024-03-23T12:03:06;100846.91;;;11.44;100.00
72685;BME280;61365;52.162;4.500;2024-03-23T12:05:33;100842.28;;;11.86;100.00
72685;BME280;61365;52.162;4.500;2024-03-23T12:08:17;100841.34;;;11.92;100.00
72685;BME280;61365;52.162;4.500;2024-03-23T12:10:49;100836.47;;;11.23;100.00
72685;BME280;61365;52.162;4.500;2024-03-23T12:13:17;100829.31;;;11.53;100.00
72685;BME280;61365;52.162;4.500;2024-03-23T12:15:45;100823.97;;;11.72;100.00
72685;BME280;61365;52.162;4.500;2024-03-23T12:18:15;100817.91;;;11.59;100.00
72685;BME280;61365;52.162;4.500;2024-03-23T12:20:41;100820.56;;;11.53;100.00
72685;BME280;61365;52.162;4.500;2024-03-23T12:23:08;100823.22;;;11.45;100.00
72685;BME280;61365;52.162;4.500;2024-03-23T12:25:38;100824.22;;;11.21;100.00
72685;BME280;61365;52.162;4.500;2024-03-23T12:28:05;100821.63;;;11.15;100.00
72685;BME280;61365;52.162;4.500;2024-03-23T12:30:33;100819.84;;;11.18;100.00
72685;BME280;61365;52.162;4.500;2024-03-23T12:33:01;100826.91;;;10.94;100.00
72685;BME280;61365;52.162;4.500;2024-03-23T12:35:27;100825.13;;;11.14;100.00
72685;BME280;61365;52.162;4.500;2024-03-23T12:37:53;100823.44;;;10.94;100.00
72685;BME280;61365;52.162;4.500;2024-03-23T12:40:20;100813.72;;;11.10;100.00
72685;BME280;61365;52.162;4.500;2024-03-23T12:42:46;100817.94;;;11.50;100.00
72685;BME280;61365;52.162;4.500;2024-03-23T12:45:12;100810.63;;;12.06;100.00
72685;BME280;61365;52.162;4.500;2024-03-23T12:47:38;100803.47;;;12.24;100.00
72685;BME280;61365;52.162;4.500;2024-03-23T12:50:04;100794.44;;;12.51;98.80
72685;BME280;61365;52.162;4.500;2024-03-23T12:52:32;100799.22;;;12.02;100.00
72685;BME280;61365;52.162;4.500;2024-03-23T12:54:58;100803.75;;;11.80;100.00
72685;BME280;61365;52.162;4.500;2024-03-23T12:57:25;100807.19;;;11.90;98.16
72685;BME280;61365;52.162;4.500;2024-03-23T12:59:51;100801.88;;;12.04;100.00
72685;BME280;61365;52.162;4.500;2024-03-23T13:02:19;100808.91;;;11.99;100.00
72685;BME280;61365;52.162;4.500;2024-03-23T13:04:46;100793.06;;;12.10;100.00
72685;BME280;61365;52.162;4.500;2024-03-23T13:07:15;100798.53;;;11.77;100.00
72685;BME280;61365;52.162;4.500;2024-03-23T13:09:45;100801.97;;;11.87;100.00
72685;BME280;61365;52.162;4.500;2024-03-23T13:12:11;100788.03;;;11.73;100.00
72685;BME280;61365;52.162;4.500;2024-03-23T13:14:40;100789.59;;;12.05;100.00
72685;BME280;61365;52.162;4.500;2024-03-23T13:17:08;100787.69;;;12.21;100.00
72685;BME280;61365;52.162;4.500;2024-03-23T13:19:34;100788.63;;;12.15;100.00
72685;BME280;61365;52.162;4.500;2024-03-23T13:22:00;100787.56;;;12.38;100.00
72685;BME280;61365;52.162;4.500;2024-03-23T13:24:27;100783.41;;;12.09;100.00
72685;BME280;61365;52.162;4.500;2024-03-23T13:26:55;100787.84;;;12.04;92.86
72685;BME280;61365;52.162;4.500;2024-03-23T13:29:21;100771.81;;;12.33;95.01
72685;BME280;61365;52.162;4.500;2024-03-23T13:31:48;100782.59;;;12.00;100.00
72685;BME280;61365;52.162;4.500;2024-03-23T13:34:16;100764.06;;;12.19;100.00
72685;BME280;61365;52.162;4.500;2024-03-23T13:36:45;100772.94;;;11.99;100.00
72685;BME280;61365;52.162;4.500;2024-03-23T13:39:12;100770.97;;;12.28;100.00
72685;BME280;61365;52.162;4.500;2024-03-23T13:41:43;100765.03;;;12.06;100.00